Terminal Aerodrome Forecast
Issued by NWS

Home | Current Version | Previous Version | Text Only | Print | Product List | Glossary On
Versions: 1 2 3 4 5 6 7 8 9 10 11 12 13
000
FTPA31 PHFO 252300
TAFJHM
TAF
PHJH 252327Z 2600/2624 05014KT P6SM FEW030 SCT050
     FM260500 05011KT P6SM VCSH SCT030 BKN050
     FM262000 05015G25KT P6SM FEW030 SCT050
      AMD NOT SKED AFT 260400=

USA.gov is the U.S. government's official web portal to all federal, state and local government web resources and services.